Time;durP1;ratioP1;P1;durP2;ratioP2;P2;SDS_P1;SDS_P2;PMS_P1;PMS_P2;Temp;Humidity;BMP_temperature;BMP_pressure;BME280_temperature;BME280_humidity;BME280_pressure;Samples;Min_cycle;Max_cycle;Signal;HPM_P1;HPM_P2
2022/01/08 00:00:51;;;;;;;7.45;5.10;;;4.80;84.00;;;;;;4996798;28;20061;-82
2022/01/08 00:03:17;;;;;;;7.10;5.63;;;4.80;83.80;;;;;;4996252;28;20398;-85
2022/01/08 00:05:42;;;;;;;6.90;5.40;;;4.90;83.70;;;;;;4999197;28;20429;-84
2022/01/08 00:08:08;;;;;;;7.25;5.13;;;5.00;83.60;;;;;;4989431;28;20537;-85
2022/01/08 00:10:34;;;;;;;8.85;5.95;;;5.00;83.40;;;;;;4983393;28;20031;-84
2022/01/08 00:13:03;;;;;;;7.18;5.85;;;5.00;83.40;;;;;;4984470;28;20464;-83
2022/01/08 00:15:29;;;;;;;9.02;6.50;;;5.10;83.50;;;;;;4986564;28;20100;-83
2022/01/08 00:17:55;;;;;;;8.85;6.43;;;5.00;83.10;;;;;;4978306;28;20038;-84
2022/01/08 00:20:20;;;;;;;9.68;6.32;;;5.00;83.10;;;;;;4985538;28;20030;-84
2022/01/08 00:22:50;;;;;;;8.80;6.25;;;5.00;83.00;;;;;;4989465;28;20022;-84
2022/01/08 00:25:15;;;;;;;9.82;6.38;;;5.00;83.00;;;;;;4990266;28;20022;-87
2022/01/08 00:27:41;;;;;;;8.82;6.53;;;5.00;83.00;;;;;;4989917;28;20037;-83
2022/01/08 00:30:08;;;;;;;7.78;5.65;;;5.00;83.00;;;;;;4984942;28;20467;-83
2022/01/08 00:32:34;;;;;;;7.97;5.80;;;4.90;82.90;;;;;;4986543;28;20109;-83
2022/01/08 00:34:59;;;;;;;10.82;7.88;;;5.00;82.90;;;;;;4989899;28;20034;-84
2022/01/08 00:37:25;;;;;;;9.23;7.10;;;4.80;82.50;;;;;;4983892;28;20110;-83
2022/01/08 00:39:50;;;;;;;10.48;6.63;;;4.70;82.70;;;;;;4986217;28;20113;-83
2022/01/08 00:42:16;;;;;;;8.07;5.95;;;4.60;82.80;;;;;;4984714;28;20026;-84
2022/01/08 00:44:42;;;;;;;8.98;6.55;;;4.60;82.90;;;;;;4987896;28;20034;-84
2022/01/08 00:47:07;;;;;;;10.90;6.50;;;4.60;83.00;;;;;;4987172;28;20026;-84
2022/01/08 00:49:33;;;;;;;8.15;6.32;;;4.60;83.00;;;;;;4993455;28;20034;-84
2022/01/08 00:51:59;;;;;;;7.18;5.55;;;4.60;82.90;;;;;;5001085;28;20037;-84
2022/01/08 00:54:24;;;;;;;9.10;7.07;;;4.60;82.90;;;;;;4993503;28;20030;-85
2022/01/08 00:56:50;;;;;;;12.35;6.78;;;4.60;82.90;;;;;;4999979;28;20018;-85
2022/01/08 00:59:16;;;;;;;10.13;6.07;;;4.60;82.90;;;;;;4995266;28;20481;-85
2022/01/08 01:01:42;;;;;;;12.98;8.48;;;4.60;82.90;;;;;;5003062;28;20477;-85
2022/01/08 01:04:08;;;;;;;9.13;7.18;;;4.60;82.70;;;;;;5008280;28;20028;-87
2022/01/08 01:06:33;;;;;;;8.07;6.13;;;4.60;82.80;;;;;;5000683;28;20029;-85
2022/01/08 01:08:59;;;;;;;10.60;7.97;;;4.60;82.80;;;;;;5001548;28;20088;-85
2022/01/08 01:11:24;;;;;;;10.50;6.78;;;4.60;82.60;;;;;;5000180;28;20026;-86
2022/01/08 01:13:50;;;;;;;7.78;5.18;;;4.60;82.60;;;;;;5006748;28;20046;-86
2022/01/08 01:16:15;;;;;;;7.25;5.50;;;4.70;82.80;;;;;;5000154;28;20076;-86
2022/01/08 01:18:41;;;;;;;10.70;6.72;;;4.70;82.80;;;;;;4994462;28;20030;-86
2022/01/08 01:21:06;;;;;;;7.05;5.82;;;4.80;82.80;;;;;;4992595;28;20042;-87
2022/01/08 01:23:38;;;;;;;7.63;6.05;;;4.80;82.70;;;;;;4999386;28;20543;-86
2022/01/08 01:26:07;;;;;;;8.73;6.55;;;4.80;82.70;;;;;;5002084;28;20023;-88
2022/01/08 01:28:51;;;;;;;9.00;6.95;;;4.80;82.60;;;;;;4999438;28;20034;-81
2022/01/08 01:42:07;;;;;;;9.68;6.10;;;4.80;82.50;;;;;;5002343;28;20565;-82
2022/01/08 01:47:28;;;;;;;8.52;5.88;;;4.80;82.50;;;;;;5003264;28;20114;-82
2022/01/08 01:49:53;;;;;;;10.85;6.68;;;4.80;82.40;;;;;;4999208;28;20026;-82
2022/01/08 01:52:19;;;;;;;8.57;6.25;;;4.80;82.50;;;;;;5004406;28;20037;-82
2022/01/08 01:54:45;;;;;;;7.70;6.30;;;4.80;82.40;;;;;;5003155;28;20026;-82
2022/01/08 01:57:13;;;;;;;8.35;6.60;;;4.80;82.50;;;;;;5000371;28;20030;-84
2022/01/08 01:59:40;;;;;;;9.43;6.60;;;4.80;82.50;;;;;;4999532;28;20037;-84
2022/01/08 02:02:06;;;;;;;8.63;6.18;;;4.80;82.30;;;;;;5000636;28;20034;-84
2022/01/08 02:04:32;;;;;;;8.50;5.68;;;4.80;82.30;;;;;;5004635;28;20030;-82
2022/01/08 02:06:58;;;;;;;8.15;6.38;;;4.80;82.30;;;;;;5016255;28;20014;-84
2022/01/08 02:09:23;;;;;;;7.32;5.38;;;4.80;82.40;;;;;;5003820;28;20530;-84
2022/01/08 02:12:02;;;;;;;9.75;6.25;;;4.70;82.40;;;;;;5001419;28;20026;-83
2022/01/08 02:14:30;;;;;;;7.95;5.47;;;4.80;82.40;;;;;;5003175;28;20567;-82
2022/01/08 02:16:56;;;;;;;6.75;5.22;;;4.80;82.30;;;;;;4997943;28;20026;-82
2022/01/08 02:19:22;;;;;;;7.57;5.00;;;4.80;82.40;;;;;;4999997;28;20599;-83
2022/01/08 02:21:50;;;;;;;8.82;5.53;;;4.80;82.30;;;;;;4987179;28;20109;-83
2022/01/08 02:24:15;;;;;;;8.38;6.07;;;4.80;82.30;;;;;;4993361;28;20053;-83
2022/01/08 02:26:41;;;;;;;7.35;5.47;;;4.80;82.20;;;;;;4997810;28;20497;-83
2022/01/08 02:29:10;;;;;;;8.70;5.78;;;4.80;82.20;;;;;;5001649;28;20468;-83
2022/01/08 02:31:36;;;;;;;8.57;5.90;;;4.90;82.20;;;;;;4998747;28;20109;-83
2022/01/08 02:34:02;;;;;;;9.45;5.70;;;4.90;82.10;;;;;;5002811;28;20134;-83
2022/01/08 02:36:27;;;;;;;9.02;5.93;;;4.90;82.00;;;;;;4998215;28;20367;-83
2022/01/08 02:38:53;;;;;;;8.57;6.03;;;4.90;81.90;;;;;;5002731;28;20049;-83
2022/01/08 02:41:19;;;;;;;8.65;5.70;;;4.90;81.80;;;;;;4998003;28;20018;-83
2022/01/08 02:43:52;;;;;;;7.38;5.20;;;4.90;81.80;;;;;;4989877;28;20346;-83
2022/01/08 02:46:17;;;;;;;6.65;5.13;;;4.90;81.80;;;;;;4995946;28;20026;-82
2022/01/08 02:48:43;;;;;;;7.15;5.25;;;4.80;81.80;;;;;;5000384;28;20018;-85
2022/01/08 02:51:08;;;;;;;7.40;5.03;;;4.90;81.80;;;;;;4998078;28;20370;-85
2022/01/08 02:53:34;;;;;;;6.95;5.38;;;4.90;81.70;;;;;;4997483;28;20030;-83
2022/01/08 02:55:59;;;;;;;7.38;5.20;;;4.90;81.70;;;;;;4997328;28;20041;-82
2022/01/08 02:58:28;;;;;;;6.50;4.97;;;4.90;81.60;;;;;;4998557;28;20038;-83
2022/01/08 03:00:55;;;;;;;8.02;4.93;;;4.90;81.60;;;;;;4998447;28;20018;-84
2022/01/08 03:03:20;;;;;;;7.15;4.90;;;4.90;81.60;;;;;;5002397;28;20305;-84
2022/01/08 03:05:46;;;;;;;6.78;4.13;;;4.90;81.50;;;;;;4999529;28;20137;-85
2022/01/08 03:08:11;;;;;;;7.32;5.68;;;5.00;81.60;;;;;;5002729;28;20439;-84
2022/01/08 03:10:37;;;;;;;6.78;4.75;;;5.00;81.60;;;;;;4999962;28;20495;-84
2022/01/08 03:13:04;;;;;;;7.90;5.50;;;5.00;81.50;;;;;;4998075;28;20049;-84
2022/01/08 03:15:35;;;;;;;6.32;3.58;;;5.00;81.50;;;;;;5006386;28;20025;-84
2022/01/08 03:18:03;;;;;;;8.73;5.28;;;5.00;81.50;;;;;;5000023;28;20041;-86
2022/01/08 03:20:29;;;;;;;8.02;5.47;;;5.00;81.50;;;;;;4986130;28;20392;-86
2022/01/08 03:23:01;;;;;;;8.10;5.18;;;5.00;81.40;;;;;;4996733;28;20068;-86
2022/01/08 03:25:27;;;;;;;;;;;5.00;81.40;;;;;;5004238;28;20034;-87
2022/01/08 03:27:53;;;;;;;7.03;4.90;;;5.00;81.30;;;;;;5003791;28;19921;-85
2022/01/08 03:30:19;;;;;;;8.32;5.20;;;5.00;81.30;;;;;;4998895;28;20097;-85
2022/01/08 03:32:44;;;;;;;8.23;4.97;;;5.00;81.40;;;;;;5004960;28;20425;-84
2022/01/08 03:35:11;;;;;;;8.68;5.22;;;5.10;81.40;;;;;;5001762;28;20018;-84
2022/01/08 03:37:36;;;;;;;7.72;5.18;;;5.10;81.40;;;;;;5001340;28;20030;-87
2022/01/08 03:40:04;;;;;;;5.70;4.40;;;5.10;81.20;;;;;;4997888;28;20033;-87
2022/01/08 03:42:30;;;;;;;9.90;4.97;;;5.10;81.20;;;;;;5002902;28;20393;-81
2022/01/08 03:44:56;;;;;;;7.30;4.20;;;5.10;81.20;;;;;;5001449;28;20029;-81
2022/01/08 03:49:53;;;;;;;9.10;4.33;;;5.20;81.30;;;;;;4998484;28;20480;-83
2022/01/08 03:52:20;;;;;;;6.72;5.18;;;5.20;81.20;;;;;;4997490;28;20083;-82
2022/01/08 03:54:45;;;;;;;7.95;4.63;;;5.10;81.10;;;;;;5000072;28;20730;-83
2022/01/08 03:57:11;;;;;;;6.60;5.13;;;5.10;81.20;;;;;;4989604;28;20057;-83
2022/01/08 03:59:36;;;;;;;8.10;5.00;;;5.20;81.80;;;;;;5003636;28;20401;-82
2022/01/08 04:02:02;;;;;;;7.00;4.78;;;5.10;81.00;;;;;;4991119;28;20038;-82
2022/01/08 04:04:29;;;;;;;6.93;5.20;;;5.10;81.10;;;;;;4996517;28;20069;-82
2022/01/08 04:06:54;;;;;;;8.52;5.25;;;5.10;81.20;;;;;;4983852;28;20473;-82
2022/01/08 04:09:20;;;;;;;8.88;5.65;;;5.10;81.20;;;;;;4997191;28;20157;-82
2022/01/08 04:11:46;;;;;;;7.97;5.30;;;5.10;81.10;;;;;;5003487;28;20018;-82
2022/01/08 04:14:13;;;;;;;8.25;5.32;;;5.10;81.00;;;;;;4996422;28;20733;-83
2022/01/08 04:16:43;;;;;;;6.55;4.63;;;5.00;81.00;;;;;;4998417;28;20397;-82
2022/01/08 04:19:09;;;;;;;8.80;4.90;;;5.00;80.90;;;;;;4988300;28;20034;-82
2022/01/08 04:24:03;;;;;;;6.38;4.10;;;5.00;81.00;;;;;;5000928;28;20103;-83
2022/01/08 04:26:29;;;;;;;6.88;4.85;;;5.00;81.10;;;;;;5000114;28;20129;-83
2022/01/08 04:28:55;;;;;;;8.27;5.30;;;5.00;81.10;;;;;;5004519;28;20405;-83
2022/01/08 04:31:22;;;;;;;6.57;4.40;;;5.00;80.90;;;;;;4994431;28;20022;-83
2022/01/08 04:33:48;;;;;;;7.63;4.47;;;5.00;80.90;;;;;;4998708;28;20420;-83
2022/01/08 04:36:13;;;;;;;6.18;4.35;;;5.00;80.90;;;;;;5002201;28;20018;-83
2022/01/08 04:38:39;;;;;;;7.40;4.50;;;5.00;80.90;;;;;;5004318;28;20061;-83
2022/01/08 04:41:04;;;;;;;4.72;3.67;;;4.90;80.80;;;;;;5000351;28;20464;-83
2022/01/08 04:43:30;;;;;;;6.88;4.50;;;5.00;80.80;;;;;;5008689;28;20069;-83
2022/01/08 04:45:56;;;;;;;6.10;3.75;;;5.00;80.90;;;;;;4996554;28;20069;-83
2022/01/08 04:48:21;;;;;;;6.25;4.25;;;4.90;80.70;;;;;;5005039;28;20213;-83
2022/01/08 04:50:47;;;;;;;5.53;4.07;;;4.90;80.80;;;;;;5003468;28;20512;-81
2022/01/08 04:53:13;;;;;;;6.00;4.07;;;4.80;80.80;;;;;;4999586;28;20397;-81
2022/01/08 04:55:39;;;;;;;6.40;4.40;;;4.90;81.00;;;;;;5002664;28;20038;-81
2022/01/08 04:58:06;;;;;;;5.07;3.90;;;4.90;81.00;;;;;;5008351;28;20061;-82
2022/01/08 05:00:32;;;;;;;6.05;4.68;;;4.90;80.90;;;;;;5000018;28;20029;-82
2022/01/08 05:02:59;;;;;;;6.45;4.70;;;4.90;80.90;;;;;;5005705;28;20065;-82
2022/01/08 05:05:25;;;;;;;5.93;4.18;;;4.80;80.70;;;;;;5000363;28;20238;-84
2022/01/08 05:07:50;;;;;;;7.25;3.80;;;4.80;80.70;;;;;;5006515;28;20323;-84
2022/01/08 05:10:17;;;;;;;6.78;4.20;;;4.80;80.60;;;;;;5001197;28;20064;-84
2022/01/08 05:12:43;;;;;;;6.88;4.43;;;4.80;80.80;;;;;;5007497;28;20439;-86
2022/01/08 05:15:09;;;;;;;5.28;3.70;;;4.70;80.70;;;;;;4999059;28;20036;-86
2022/01/08 05:17:35;;;;;;;8.68;4.50;;;4.70;80.70;;;;;;5007334;28;20088;-84
2022/01/08 05:20:10;;;;;;;6.88;4.15;;;4.70;80.70;;;;;;4989869;28;20015;-84
2022/01/08 05:23:00;;;;;;;7.18;4.47;;;4.70;80.70;;;;;;4991967;28;20493;-85
2022/01/08 05:25:25;;;;;;;6.35;4.00;;;4.60;80.70;;;;;;5000266;28;20149;-85
2022/01/08 05:27:50;;;;;;;7.15;4.53;;;4.60;80.70;;;;;;5003522;28;20105;-88
2022/01/08 05:30:18;;;;;;;7.43;4.88;;;4.50;80.70;;;;;;4998517;28;20481;-80
2022/01/08 05:32:44;;;;;;;7.00;4.07;;;4.40;80.70;;;;;;4995968;28;20051;-81
2022/01/08 05:35:10;;;;;;;7.03;4.72;;;4.40;80.80;;;;;;5003394;28;20377;-83
2022/01/08 05:37:36;;;;;;;6.65;4.07;;;4.40;80.70;;;;;;5000776;28;20109;-83
2022/01/08 05:40:01;;;;;;;5.45;3.88;;;4.40;80.70;;;;;;5001859;28;20042;-83
2022/01/08 05:42:27;;;;;;;6.38;4.38;;;4.40;80.70;;;;;;5000761;28;20031;-83
2022/01/08 05:44:52;;;;;;;7.32;4.90;;;4.40;80.80;;;;;;5002720;28;20033;-87
2022/01/08 05:47:21;;;;;;;5.95;4.00;;;4.40;80.60;;;;;;4998169;28;20030;-87
2022/01/08 05:49:46;;;;;;;6.53;3.80;;;4.30;80.50;;;;;;5002062;28;20385;-87
2022/01/08 05:52:12;;;;;;;7.13;4.65;;;4.30;80.70;;;;;;5007187;28;20049;-86
2022/01/08 05:54:37;;;;;;;8.52;4.82;;;4.20;80.60;;;;;;4998037;28;20026;-86
2022/01/08 05:57:03;;;;;;;6.38;4.47;;;4.10;80.80;;;;;;5007232;28;20484;-84
2022/01/08 05:59:29;;;;;;;7.15;4.50;;;4.10;80.90;;;;;;5004120;28;20397;-85
2022/01/08 06:01:55;;;;;;;6.60;4.72;;;4.10;80.90;;;;;;4996701;28;20018;-86
2022/01/08 06:04:21;;;;;;;10.23;5.40;;;4.10;80.80;;;;;;4997605;28;20030;-86
2022/01/08 06:06:46;;;;;;;7.45;4.38;;;4.00;80.80;;;;;;5002963;28;20354;-85
2022/01/08 06:09:12;;;;;;;7.80;4.38;;;4.00;80.90;;;;;;5003765;28;20421;-85
2022/01/08 06:11:38;;;;;;;7.05;4.50;;;4.00;80.80;;;;;;5001578;28;20389;-85
2022/01/08 06:14:04;;;;;;;9.90;4.75;;;3.90;80.70;;;;;;5006795;28;20065;-85
2022/01/08 06:16:33;;;;;;;9.02;4.93;;;3.90;81.00;;;;;;4999786;28;20552;-84
2022/01/08 06:19:01;;;;;;;8.40;4.65;;;3.90;80.80;;;;;;5001635;28;20034;-85
2022/01/08 06:21:26;;;;;;;6.18;4.60;;;3.90;81.00;;;;;;4987225;28;20028;-86
2022/01/08 06:23:52;;;;;;;8.85;4.50;;;3.80;81.50;;;;;;5002779;28;20524;-84
2022/01/08 06:26:17;;;;;;;9.55;4.60;;;3.90;81.00;;;;;;5000528;28;20389;-84
2022/01/08 06:28:43;;;;;;;7.95;4.90;;;3.90;81.10;;;;;;5004983;28;20065;-84
2022/01/08 06:31:08;;;;;;;8.30;4.65;;;3.90;80.90;;;;;;5001683;28;20027;-85
2022/01/08 06:33:34;;;;;;;9.60;4.95;;;3.90;81.00;;;;;;5006812;28;20396;-84
2022/01/08 06:35:59;;;;;;;6.78;3.88;;;3.80;81.00;;;;;;4999686;28;20462;-85
2022/01/08 06:38:25;;;;;;;6.90;4.50;;;3.90;81.10;;;;;;5003753;28;20345;-85
2022/01/08 06:40:50;;;;;;;6.35;3.85;;;3.90;81.10;;;;;;4999128;28;20022;-87
2022/01/08 06:43:16;;;;;;;7.00;4.40;;;4.00;81.10;;;;;;4999970;28;20037;-84
2022/01/08 06:45:41;;;;;;;8.32;4.32;;;4.00;80.90;;;;;;4999888;28;20366;-84
2022/01/08 06:48:07;;;;;;;7.50;4.15;;;4.00;81.00;;;;;;4998093;28;20096;-85
2022/01/08 06:50:32;;;;;;;6.65;4.28;;;4.00;81.00;;;;;;5000506;28;20033;-85
2022/01/08 06:52:58;;;;;;;6.80;4.63;;;4.00;81.00;;;;;;4999106;28;20199;-85
2022/01/08 06:55:24;;;;;;;8.13;4.03;;;4.00;80.80;;;;;;4992104;28;20088;-85
2022/01/08 06:57:49;;;;;;;8.13;5.20;;;4.00;80.80;;;;;;5001926;28;20034;-86
2022/01/08 07:00:15;;;;;;;8.02;4.55;;;3.90;80.60;;;;;;5000760;28;20030;-86
2022/01/08 07:02:40;;;;;;;7.32;4.80;;;3.80;80.70;;;;;;5003308;28;20022;-86
2022/01/08 07:05:06;;;;;;;8.55;4.85;;;3.80;80.90;;;;;;5002661;28;20599;-83
2022/01/08 07:07:31;;;;;;;11.90;5.40;;;3.80;80.90;;;;;;4999211;28;20035;-87
2022/01/08 07:09:57;;;;;;;10.40;5.00;;;3.70;80.90;;;;;;5000517;28;20022;-85
2022/01/08 07:12:23;;;;;;;8.48;5.32;;;3.60;81.00;;;;;;5002070;28;20258;-86
2022/01/08 07:14:48;;;;;;;7.70;5.25;;;3.60;81.00;;;;;;4999650;28;20080;-86
2022/01/08 07:17:14;;;;;;;14.57;7.07;;;3.50;81.10;;;;;;5001531;28;20441;-86
2022/01/08 07:19:39;;;;;;;12.60;6.18;;;3.40;81.20;;;;;;4991513;28;20485;-86
2022/01/08 07:22:05;;;;;;;9.35;5.53;;;3.40;81.40;;;;;;4989366;28;20436;-84
2022/01/08 07:24:30;;;;;;;9.13;4.88;;;3.30;81.50;;;;;;4998980;28;20096;-83
2022/01/08 07:26:56;;;;;;;9.05;4.90;;;3.30;81.80;;;;;;4988953;28;20022;-84
2022/01/08 07:29:21;;;;;;;7.45;5.20;;;3.40;81.80;;;;;;4989988;28;20046;-84
2022/01/08 07:31:47;;;;;;;11.90;5.90;;;3.30;81.80;;;;;;4997771;28;20027;-84
2022/01/08 07:34:12;;;;;;;10.65;6.15;;;3.40;81.80;;;;;;4990651;28;20365;-83
2022/01/08 07:36:38;;;;;;;11.55;5.75;;;3.40;81.80;;;;;;4997863;28;20098;-83
2022/01/08 07:39:03;;;;;;;8.77;6.45;;;3.30;81.90;;;;;;4995677;28;20057;-83
2022/01/08 07:41:29;;;;;;;11.30;5.93;;;3.30;81.90;;;;;;4994235;28;20031;-82
2022/01/08 07:43:55;;;;;;;9.32;5.75;;;3.30;81.90;;;;;;4993104;28;20068;-82
2022/01/08 07:46:20;;;;;;;8.02;5.13;;;3.30;82.10;;;;;;4994970;28;20065;-83
2022/01/08 07:48:46;;;;;;;11.65;6.75;;;3.30;82.20;;;;;;5002277;28;20500;-84
2022/01/08 07:51:12;;;;;;;10.43;6.60;;;3.30;82.10;;;;;;4995808;28;20034;-84
2022/01/08 07:53:38;;;;;;;11.65;7.05;;;3.30;82.10;;;;;;4995629;28;20030;-83
2022/01/08 07:56:04;;;;;;;9.98;5.80;;;3.20;82.10;;;;;;4987794;28;20026;-83
2022/01/08 07:58:29;;;;;;;12.40;6.85;;;3.20;82.30;;;;;;4998221;28;20042;-84
2022/01/08 08:00:55;;;;;;;11.45;6.82;;;3.20;82.40;;;;;;4991322;28;20057;-86
2022/01/08 08:03:20;;;;;;;12.13;7.53;;;3.30;82.50;;;;;;4997592;28;20064;-85
2022/01/08 08:05:46;;;;;;;6.55;4.32;;;3.30;82.50;;;;;;4988368;28;20031;-86
2022/01/08 08:08:16;;;;;;;12.00;7.13;;;3.30;82.50;;;;;;4997395;28;20500;-86
2022/01/08 08:10:43;;;;;;;11.88;6.25;;;3.30;82.40;;;;;;4992859;28;20481;-86
2022/01/08 08:13:08;;;;;;;10.90;6.43;;;3.30;82.40;;;;;;5000103;28;20030;-87
2022/01/08 08:15:34;;;;;;;11.15;7.07;;;3.30;82.40;;;;;;4991696;28;20482;-86
2022/01/08 08:17:59;;;;;;;11.15;5.75;;;3.30;82.50;;;;;;4989090;28;20030;-85
2022/01/08 08:20:25;;;;;;;11.38;7.35;;;3.30;82.60;;;;;;4983050;28;20034;-85
2022/01/08 08:22:50;;;;;;;10.82;6.47;;;3.30;82.60;;;;;;5001132;28;20477;-85
2022/01/08 08:25:16;;;;;;;10.77;6.18;;;3.30;82.70;;;;;;4993613;28;20026;-87
2022/01/08 08:27:42;;;;;;;10.98;6.55;;;3.30;82.80;;;;;;5014449;28;20044;-86
2022/01/08 08:30:09;;;;;;;12.00;6.95;;;3.30;83.40;;;;;;4994506;28;20445;-86
2022/01/08 08:32:35;;;;;;;11.90;7.65;;;3.30;82.80;;;;;;4996437;28;20444;-86
2022/01/08 08:35:00;;;;;;;13.68;9.52;;;3.30;82.90;;;;;;4996484;28;20026;-87
2022/01/08 08:37:26;;;;;;;14.13;9.57;;;3.30;83.00;;;;;;4996154;28;20026;-87
2022/01/08 08:39:51;;;;;;;14.52;9.68;;;3.20;83.10;;;;;;5006922;28;20030;-87
2022/01/08 08:42:17;;;;;;;9.52;5.88;;;3.20;83.40;;;;;;4999624;28;20026;-87
2022/01/08 08:44:42;;;;;;;12.43;8.00;;;3.20;83.50;;;;;;4999869;28;20050;-80
2022/01/08 08:47:08;;;;;;;10.35;6.82;;;3.20;83.50;;;;;;5001750;28;20019;-85
2022/01/08 08:49:34;;;;;;;11.77;8.20;;;3.20;83.60;;;;;;4984909;28;20022;-86
2022/01/08 08:52:00;;;;;;;15.27;8.10;;;3.30;83.60;;;;;;4977779;28;20022;-87
2022/01/08 08:54:26;;;;;;;11.77;8.10;;;3.30;83.60;;;;;;4975997;28;20133;-87
2022/01/08 08:56:52;;;;;;;12.82;8.65;;;3.30;83.80;;;;;;4984033;28;20113;-88
2022/01/08 08:59:17;;;;;;;17.55;11.35;;;3.30;83.80;;;;;;4986511;28;20022;-87
2022/01/08 09:01:43;;;;;;;14.05;8.30;;;3.20;84.00;;;;;;4982687;28;20030;-87
2022/01/08 09:04:08;;;;;;;19.73;11.15;;;3.20;84.30;;;;;;4978434;28;20034;-87
2022/01/08 09:06:34;;;;;;;14.55;8.80;;;3.30;84.30;;;;;;4984801;28;20519;-87
2022/01/08 09:09:00;;;;;;;15.88;8.13;;;3.30;84.60;;;;;;4977726;28;20060;-84
2022/01/08 09:11:27;;;;;;;12.23;7.35;;;3.30;84.60;;;;;;4979225;28;20073;-86
2022/01/08 09:13:52;;;;;;;14.10;9.32;;;3.30;84.60;;;;;;4976172;28;20876;-83
2022/01/08 09:16:21;;;;;;;17.02;9.65;;;3.30;84.60;;;;;;4982949;28;20085;-85
2022/01/08 09:18:47;;;;;;;12.55;6.78;;;3.30;84.80;;;;;;4982002;28;20030;-85
2022/01/08 09:21:14;;;;;;;14.15;8.25;;;3.30;84.90;;;;;;4981868;28;20026;-83
2022/01/08 09:23:39;;;;;;;12.57;7.53;;;3.30;85.00;;;;;;5002026;28;20431;-85
2022/01/08 09:26:05;;;;;;;13.77;8.20;;;3.30;85.00;;;;;;4999683;28;20153;-85
2022/01/08 09:28:31;;;;;;;17.48;10.38;;;3.30;85.00;;;;;;4996718;28;20071;-86
2022/01/08 09:30:57;;;;;;;10.10;6.78;;;3.30;85.00;;;;;;4993468;28;20019;-85
2022/01/08 09:33:24;;;;;;;14.07;8.95;;;3.40;85.20;;;;;;5000554;28;20046;-84
2022/01/08 09:35:51;;;;;;;11.35;6.75;;;3.40;85.10;;;;;;4998231;28;20436;-85
2022/01/08 09:38:20;;;;;;;15.27;9.93;;;3.40;85.20;;;;;;5011397;28;20038;-85
2022/01/08 09:40:46;;;;;;;14.60;9.90;;;3.40;85.10;;;;;;5000750;28;20384;-86
2022/01/08 09:43:12;;;;;;;11.10;7.47;;;3.40;85.20;;;;;;5000730;28;20030;-86
2022/01/08 09:45:38;;;;;;;14.90;8.30;;;3.40;85.30;;;;;;4995531;28;20034;-83
2022/01/08 09:48:04;;;;;;;17.48;8.63;;;3.40;85.30;;;;;;4998309;28;20026;-86
2022/01/08 09:50:29;;;;;;;12.30;7.97;;;3.50;85.40;;;;;;4984011;28;20038;-85
2022/01/08 09:52:57;;;;;;;14.48;8.38;;;3.50;85.40;;;;;;4992483;28;20393;-84
2022/01/08 09:55:27;;;;;;;14.07;7.93;;;3.50;85.40;;;;;;5008874;28;20084;-85
2022/01/08 09:57:54;;;;;;;17.95;10.15;;;3.50;85.40;;;;;;5001661;28;20030;-84
2022/01/08 10:00:20;;;;;;;12.90;7.50;;;3.50;85.50;;;;;;4988246;28;20177;-84
2022/01/08 10:02:46;;;;;;;11.05;7.43;;;3.50;85.60;;;;;;5000651;28;20088;-85
2022/01/08 10:05:15;;;;;;;10.20;6.93;;;3.50;85.60;;;;;;4998599;28;20038;-85
2022/01/08 10:07:41;;;;;;;14.10;8.50;;;3.50;85.70;;;;;;4995086;28;20030;-85
2022/01/08 10:10:17;;;;;;;17.63;9.98;;;3.50;85.70;;;;;;5000147;28;20151;-85
2022/01/08 10:12:48;;;;;;;11.88;8.30;;;3.50;85.80;;;;;;5001345;28;20092;-85
2022/01/08 10:18:07;;;;;;;12.43;8.82;;;3.50;86.10;;;;;;4992391;28;20072;-85
2022/01/08 10:20:35;;;;;;;13.27;8.00;;;3.50;86.10;;;;;;4987384;28;20494;-85
2022/01/08 10:23:25;;;;;;;12.98;8.65;;;3.60;86.20;;;;;;5002514;28;20105;-85
2022/01/08 10:25:55;;;;;;;16.85;9.77;;;3.60;86.10;;;;;;4999659;28;20034;-83
2022/01/08 10:28:38;;;;;;;17.30;10.98;;;3.70;86.10;;;;;;4994235;28;20030;-83
2022/01/08 10:31:41;;;;;;;12.32;7.70;;;3.70;86.20;;;;;;4986377;28;20027;-85
2022/01/08 10:34:13;;;;;;;14.63;9.18;;;3.70;86.20;;;;;;4980018;28;20092;-85
2022/01/08 10:36:44;;;;;;;21.38;13.25;;;3.70;86.20;;;;;;4986302;28;20482;-85
2022/01/08 10:39:27;;;;;;;17.50;10.63;;;3.70;86.30;;;;;;4988058;28;20030;-85
2022/01/08 10:41:53;;;;;;;15.82;9.13;;;3.60;86.50;;;;;;4989043;28;20031;-85
2022/01/08 10:44:23;;;;;;;19.60;12.55;;;3.70;86.50;;;;;;4982309;28;20033;-84
2022/01/08 10:46:56;;;;;;;15.57;10.20;;;3.70;86.50;;;;;;4994191;28;20451;-86
2022/01/08 10:49:31;;;;;;;15.88;9.10;;;3.70;86.50;;;;;;4996424;28;20129;-84
2022/01/08 10:51:59;;;;;;;18.27;11.82;;;3.80;86.50;;;;;;4999099;28;20033;-84
2022/01/08 10:54:27;;;;;;;15.30;9.88;;;3.90;86.40;;;;;;4992724;28;20054;-84
2022/01/08 10:56:59;;;;;;;13.30;8.80;;;3.90;86.40;;;;;;4992583;28;20022;-86
2022/01/08 10:59:25;;;;;;;;;;;4.00;86.30;;;;;;4996926;28;20038;-85
2022/01/08 11:02:04;;;;;;;15.35;8.45;;;4.00;86.20;;;;;;4988503;28;19932;-86
2022/01/08 11:04:42;;;;;;;20.73;12.38;;;4.00;86.20;;;;;;4992887;28;20052;-85
2022/01/08 11:07:17;;;;;;;14.48;9.02;;;4.00;86.10;;;;;;4992033;28;20033;-84
2022/01/08 11:09:45;;;;;;;13.75;8.63;;;4.00;86.00;;;;;;4997850;28;20026;-87
2022/01/08 11:12:16;;;;;;;15.68;10.40;;;4.10;86.10;;;;;;4986525;28;20138;-86
2022/01/08 11:17:23;;;;;;;15.70;9.20;;;4.10;85.90;;;;;;4998619;28;20037;-89
2022/01/08 11:20:00;;;;;;;23.02;13.85;;;4.20;85.90;;;;;;4986021;28;20046;-89
2022/01/08 11:22:30;;;;;;;24.67;13.93;;;4.20;85.80;;;;;;5000355;28;20061;-89
2022/01/08 11:24:57;;;;;;;17.65;10.38;;;4.20;85.70;;;;;;4989628;28;20385;-87
2022/01/08 11:27:39;;;;;;;12.95;8.02;;;4.20;85.70;;;;;;4991921;28;20037;-87
2022/01/08 11:30:10;;;;;;;18.98;11.55;;;4.20;85.70;;;;;;4992070;28;20023;-86
2022/01/08 11:32:37;;;;;;;28.35;16.50;;;4.20;85.50;;;;;;4992026;28;20045;-90
2022/01/08 11:35:06;;;;;;;20.42;14.38;;;4.20;85.60;;;;;;4982852;28;20501;-88
2022/01/08 11:37:32;;;;;;;21.70;12.63;;;4.10;85.50;;;;;;4991691;28;20740;-88
2022/01/08 11:40:03;;;;;;;18.67;12.13;;;4.10;85.60;;;;;;4994146;28;20110;-87
2022/01/08 11:42:31;;;;;;;21.33;13.57;;;4.20;85.70;;;;;;4991943;28;20073;-83
2022/01/08 11:44:59;;;;;;;18.27;10.95;;;4.10;85.60;;;;;;4998099;28;20067;-85
2022/01/08 11:47:27;;;;;;;22.40;12.40;;;4.20;85.70;;;;;;5002084;28;20033;-88
2022/01/08 11:49:53;;;;;;;22.02;13.35;;;4.20;85.70;;;;;;4991626;28;20030;-89
2022/01/08 11:52:23;;;;;;;19.08;12.07;;;4.20;85.70;;;;;;4993932;28;20053;-86
2022/01/08 11:54:52;;;;;;;19.23;11.25;;;4.20;85.80;;;;;;4997943;28;20029;-87
2022/01/08 11:57:20;;;;;;;24.90;14.18;;;4.20;85.70;;;;;;4989708;28;20080;-88
2022/01/08 11:59:48;;;;;;;22.38;12.05;;;4.20;85.70;;;;;;4990339;28;20030;-85
2022/01/08 12:02:15;;;;;;;17.50;10.85;;;4.20;85.70;;;;;;5008889;28;20034;-90
2022/01/08 12:04:45;;;;;;;20.52;11.23;;;4.20;85.70;;;;;;4995288;28;20405;-90
2022/01/08 12:07:46;;;;;;;18.75;10.77;;;4.30;85.70;;;;;;4977224;28;20157;-89
2022/01/08 12:10:30;;;;;;;23.88;12.10;;;4.30;85.70;;;;;;4980802;28;20215;-89
2022/01/08 12:13:01;;;;;;;17.05;10.07;;;4.30;85.70;;;;;;4981518;28;20054;-87
2022/01/08 12:15:42;;;;;;;23.15;12.48;;;4.40;85.70;;;;;;4999004;28;20022;-87
2022/01/08 12:18:26;;;;;;;17.30;10.85;;;4.40;85.60;;;;;;4992068;28;20057;-85
2022/01/08 12:20:56;;;;;;;18.75;12.13;;;4.40;85.60;;;;;;4986331;28;20551;-87
2022/01/08 12:23:40;;;;;;;22.90;11.63;;;4.40;85.60;;;;;;4993053;28;20026;-83
2022/01/08 12:26:26;;;;;;;21.98;12.60;;;4.40;85.60;;;;;;4991647;28;20018;-88
2022/01/08 12:28:58;;;;;;;21.20;13.30;;;4.40;85.50;;;;;;4995400;28;20121;-87
2022/01/08 12:31:41;;;;;;;22.05;11.32;;;4.40;85.50;;;;;;5001270;28;20635;-87
2022/01/08 12:34:31;;;;;;;17.85;9.57;;;4.50;85.50;;;;;;4987248;28;20046;-86
2022/01/08 12:37:08;;;;;;;23.30;11.40;;;4.50;85.50;;;;;;4986640;28;20041;-88
2022/01/08 12:39:43;;;;;;;15.43;9.20;;;4.50;85.30;;;;;;4990478;28;20037;-88
2022/01/08 12:42:20;;;;;;;15.65;9.40;;;4.60;85.40;;;;;;4992278;28;20038;-88
2022/01/08 12:45:30;;;;;;;18.30;9.55;;;4.60;85.30;;;;;;4985178;28;20126;-90
2022/01/08 12:48:06;;;;;;;16.02;8.98;;;4.60;85.20;;;;;;4988043;28;20476;-89
2022/01/08 12:50:36;;;;;;;15.40;9.80;;;4.50;85.00;;;;;;4989941;28;20114;-89
2022/01/08 12:53:07;;;;;;;12.50;7.47;;;4.60;85.10;;;;;;4986931;28;20523;-88
2022/01/08 12:55:55;;;;;;;11.57;7.10;;;4.60;85.00;;;;;;4984207;28;20501;-88
2022/01/08 12:58:30;;;;;;;14.57;8.35;;;4.60;84.90;;;;;;5005538;28;20034;-88
2022/01/08 13:01:02;;;;;;;15.63;8.73;;;4.70;84.80;;;;;;4989717;28;20033;-88
2022/01/08 13:03:30;;;;;;;14.90;8.73;;;4.70;84.60;;;;;;4987997;28;20042;-87
2022/01/08 13:06:02;;;;;;;15.75;9.05;;;4.70;84.50;;;;;;4987832;28;20026;-87
2022/01/08 13:08:30;;;;;;;17.15;9.45;;;4.70;84.40;;;;;;4990590;28;20023;-87
2022/01/08 13:11:00;;;;;;;15.38;9.07;;;4.60;84.30;;;;;;4987445;28;20067;-87
2022/01/08 13:13:40;;;;;;;17.77;9.60;;;4.60;84.30;;;;;;4984133;28;20035;-88
2022/01/08 13:16:28;;;;;;;19.65;9.73;;;4.60;84.30;;;;;;4985544;28;20266;-91
2022/01/08 13:19:06;;;;;;;11.63;7.47;;;4.60;84.40;;;;;;4991737;28;20027;-87